ENGMLFVP

Guest
Details From ENGM - Oslo Gardermoen
To LFVP - St Pierre
Flight Number -
Tags Generated
Created
Modified
Stats Distance 2,416 nm / 4,474 km
Max Altitude 0 ft / 0 m
Waypoints 3
Social Downloads 1
Likes 0
Share VATSIM

Download

Looking for another format? Having issues loading an existing format? Contact us
Advertisement - Login to hide

Notes

Generated

Route

ENGM SP LFVP

ID Type Via Altitude Latitude Longitude Leg Dist Tot Dist Heading (true) Name
O ENGM APT - 0 ft / 0 m 60.17576˚ 11.10778˚ - 0 nm - -
SP NDB - 0 ft / 0 m 46.76250˚ -56.16944˚ 2415 nm 2415 nm 282° / 225° ST-PIERRE NDB
O LFVP APT - 0 ft / 0 m 46.75844˚ -56.18559˚ 0 nm 2415 nm 250° / 250° -

Altitude Profile

Advertisement - Login to hide

Weather


0- 5 10 15 20 25 30 35+ Temperature / ° C

Clouds and Precipitation
Forecast for 2018-05-21 12:00 UTC. Updated 2 hours ago

Ground ~20,000 ft ~40,000 ft Winds

ENGM

Details ICAO ENGM (OSL)
Name Oslo Gardermoen
Region Norway
Timezone Europe/Oslo (UTC+2.0)
Stats Elevation 681 ft / 208 m (AMSL)
Location 60.194507° 11.098998°
Runways 2
Magnetic Variation 3.459° E

METAR

ENGM 211050Z 22010KT 190V250 CAVOK 21/07 Q1025 NOSIG

Decode

TAF

TAF ENGM 210500Z 2106/2206 18005KT CAVOK BECMG 2108/2110 20015KT BECMG 2118/2120 VRB05KT

Decode

Departure Runways

ID Width Length Bearing (true) Bearing (mag) Surface Threshold Offset Overrun Length
01L 148 ft / 45 m 12,144 ft / 3,702 m 15.89° 12.43° Concrete 0 ft / 0 m 499 ft / 152 m
01R 148 ft / 45 m 10,014 ft / 3,052 m 15.89° 12.43° Concrete 0 ft / 0 m 499 ft / 152 m
19L 148 ft / 45 m 10,014 ft / 3,052 m 195.91° 192.45° Concrete 0 ft / 0 m 466 ft / 142 m
19R 148 ft / 45 m 12,144 ft / 3,702 m 195.91° 192.45° Concrete 0 ft / 0 m 482 ft / 147 m

LFVP

Details ICAO LFVP (FSP)
Name St Pierre
Region France
Timezone Unknown (UTC+0.0)
Stats Elevation 27 ft / 8 m (AMSL)
Location 46.762662° -56.175529°
Runways 1
Magnetic Variation 18.151° W

METAR

LFVP 211100Z 28018KT CAVOK 07/04 Q1008 NOSIG

Decode

TAF

Not found

Destination Runways

ID Width Length Bearing (true) Bearing (mag) Surface Threshold Offset Overrun Length
08 150 ft / 46 m 5,902 ft / 1,799 m 58.48° 76.63° Asphalt 0 ft / 0 m 0 ft / 0 m
26 150 ft / 46 m 5,902 ft / 1,799 m 238.50° 256.65° Asphalt 0 ft / 0 m 0 ft / 0 m